• Join FlightAware (Why Join?)
  • Login
  • US Flag 
03:51PM EDT


 

Airport Tracker/Info


-or-


 

Live Flight TrackerFlight Track Log ✈ ASH3738 ✈ 04-Jul-2013 ✈ KAUS - KIAD

Flight Track Log - Related Links

Times and Time Zones

All times are in EDT time to prevent confusion due to time zone crossing. See the ASH3738 flight status page for this flight to view local times or setup timezone preferences in your user account.

Time Position Orientation Groundspeed Altitude Reporting Facility
EDT Latitude Longitude Course Direction KTS MPH feet Rate Location/Type
11:47AM 30.1289 -97.5392 97° East 267 307 6,300  Level Houston Center
11:48AM 30.1531 -97.4522 72° East 278 320 9,000 2,220 Climbing Houston Center
11:49AM 30.1958 -97.3722 58° Northeast 288 331 10,900 1,800 Climbing Houston Center
11:50AM 30.2450 -97.2803 58° Northeast 326 375 12,700 2,160 Climbing Houston Center
11:51AM 30.3333 -96.9315 90° East  Level FlightAware Approximate
11:51AM 30.2961 -97.1858 58° Northeast 343 395 15,400  Level Houston Center
11:52AM 30.3322 -96.7887 97° East  Level FlightAware Approximate
11:52AM 30.3458 -97.0900 59° Northeast 343 395 16,600  Level Houston Center
11:53AM 30.3461 -96.9639 90° East 385 443 17,900 1,500 Climbing Houston Center
11:54AM 30.3378 -96.8372 94° East 392 451 19,700 1,680 Climbing Houston Center
11:55AM 30.3278 -96.6808 94° East 413 475 21,400 1,500 Climbing Houston Center
11:56AM 30.3181 -96.5461 95° East 418 481 22,800 1,260 Climbing Houston Center
11:57AM 30.3103 -96.4053 94° East 431 496 24,100 1,080 Climbing Houston Center
11:58AM 30.3014 -96.2636 94° East 437 503 25,100 1,020 Climbing Houston Center
11:59AM 30.2925 -96.1164 94° East 452 520 26,300 900 Climbing Houston Center
12:00PM 30.3311 -95.9947 70° East 452 520 27,000 900 Climbing Houston Center
12:01PM 30.4222 -95.8519 53° Northeast 457 526 28,200 960 Climbing Houston Center
12:02PM 30.5033 -95.7317 52° Northeast 471 542 29,100 960 Climbing Houston Center
12:03PM 30.5850 -95.6100 52° Northeast 473 544 30,200 1,020 Climbing Houston Center
12:04PM 30.6661 -95.4861 53° Northeast 479 551 31,200 900 Climbing Houston Center
12:05PM 30.7419 -95.3717 52° Northeast 454 522 32,100 1,080 Climbing Houston Center
12:06PM 30.8197 -95.2506 53° Northeast 464 534 33,500 1,200 Climbing Houston Center
12:07PM 30.9111 -95.1094 53° Northeast 454 522 34,600 720 Climbing Houston Center
12:08PM 30.9886 -94.9897 53° Northeast 461 531 35,000 480 Climbing Houston Center
12:09PM 31.0669 -94.8678 53° Northeast 471 542 35,600 660 Climbing Houston Center
12:10PM 31.1525 -94.7364 53° Northeast 480 552 36,400 660 Climbing Houston Center
12:11PM 31.2508 -94.6386 40° Northeast 467 537 37,000 240 Climbing Houston Center
12:12PM 31.3589 -94.5378 39° Northeast 472 543 37,000  Level Houston Center
12:13PM 31.4658 -94.4397 38° Northeast 485 558 37,000  Level Houston Center
12:15PM 31.5728 -94.3414 38° Northeast 490 564 37,000  Level Houston Center
12:16PM 31.6800 -94.2431 38° Northeast 490 564 37,000  Level Houston Center
12:17PM 31.7967 -94.1347 38° Northeast 491 565 37,000  Level Houston Center
12:17PM 31.8764 -94.0594 39° Northeast 493 567 37,000  Level Fort Worth Center
12:18PM 32.0047 -93.9419 38° Northeast 493 567 37,000  Level Fort Worth Center
12:19PM 32.1128 -93.8422 38° Northeast 493 567 37,000  Level Fort Worth Center
12:20PM 32.2039 -93.7456 42° Northeast 488 562 37,000  Level Fort Worth Center
12:21PM 32.3136 -93.6428 38° Northeast 493 567 37,000  Level Fort Worth Center
12:22PM 32.4192 -93.5447 38° Northeast 493 567 37,000  Level Fort Worth Center
12:23PM 32.5286 -93.4392 39° Northeast 493 567 37,000  Level Fort Worth Center
12:24PM 32.6378 -93.3356 39° Northeast 498 573 37,000  Level Fort Worth Center
12:25PM 32.7453 -93.2344 38° Northeast 498 573 37,000  Level Fort Worth Center
12:26PM 32.8544 -93.1306 39° Northeast 498 573 37,000  Level Fort Worth Center
12:27PM 32.9614 -93.0264 39° Northeast 498 573 37,000  Level Fort Worth Center
12:28PM 33.0706 -92.9217 39° Northeast 498 573 37,000  Level Fort Worth Center
12:29PM 33.1794 -92.8194 38° Northeast 498 573 37,000  Level Fort Worth Center
12:30PM 33.2858 -92.7072 41° Northeast 498 573 37,000  Level Fort Worth Center
12:33PM 33.5011 -92.3700 53° Northeast 500 575 37,000  Level Memphis Center
12:34PM 33.5908 -92.2400 50° Northeast 500 575 37,000  Level Memphis Center
12:35PM 33.6764 -92.1094 52° Northeast 500 575 37,000  Level Memphis Center
12:36PM 33.7636 -91.9714 53° Northeast 510 587 37,000  Level Memphis Center
12:37PM 33.8531 -91.8406 51° Northeast 510 587 37,000  Level Memphis Center
12:38PM 33.9358 -91.7042 54° Northeast 510 587 37,000  Level Memphis Center
12:39PM 34.0228 -91.5678 52° Northeast 505 581 37,000  Level Memphis Center
12:40PM 34.1117 -91.4308 52° Northeast 510 587 37,000  Level Memphis Center
12:41PM 34.1964 -91.2914 54° Northeast 510 587 37,000  Level Memphis Center
12:42PM 34.2767 -91.1717 51° Northeast 510 587 37,000  Level Memphis Center
12:43PM 34.3650 -91.0339 52° Northeast 510 587 37,000  Level Memphis Center
12:44PM 34.4511 -90.8936 53° Northeast 510 587 37,000  Level Memphis Center
12:45PM 34.5394 -90.7581 52° Northeast 516 594 37,000  Level Memphis Center
12:46PM 34.6275 -90.6172 53° Northeast 511 588 37,000  Level Memphis Center
12:47PM 34.7131 -90.4808 53° Northeast 511 588 37,000  Level Memphis Center
12:48PM 34.8069 -90.3294 53° Northeast 511 588 37,000  Level Memphis Center
12:49PM 34.8925 -90.1925 53° Northeast 511 588 37,000  Level Memphis Center
12:50PM 34.9797 -90.0531 53° Northeast 511 588 37,000  Level Memphis Center
12:51PM 35.0503 -89.9056 60° Northeast 506 582 37,000  Level Memphis Center
12:52PM 35.1039 -89.7506 67° East 495 570 37,000  Level Memphis Center
12:53PM 35.1511 -89.6131 67° East 489 563 37,000  Level Memphis Center
12:54PM 35.2044 -89.4600 67° East 484 557 37,000  Level Memphis Center
12:55PM 35.2575 -89.3094 67° East 484 557 37,000  Level Memphis Center
12:56PM 35.3081 -89.1561 68° East 478 550 37,000  Level Memphis Center
12:57PM 35.3669 -88.9897 66° East 478 550 37,000  Level Memphis Center
12:58PM 35.4214 -88.8361 66° East 483 556 37,000  Level Memphis Center
12:59PM 35.4656 -88.7000 68° East 477 549 37,000  Level Memphis Center
01:00PM 35.5175 -88.5433 68° East 477 549 37,000  Level Memphis Center
01:01PM 35.5717 -88.3942 66° East 477 549 37,000  Level Memphis Center
01:02PM 35.6233 -88.2397 68° East 482 555 37,000  Level Memphis Center
01:03PM 35.6808 -88.0772 66° East 466 536 37,000  Level Memphis Center
01:04PM 35.7242 -87.9406 69° East 466 536 37,000  Level Memphis Center
01:05PM 35.7775 -87.7856 67° East 477 549 37,000  Level Memphis Center
01:06PM 35.8283 -87.6328 68° East 486 559 37,000  Level Memphis Center
01:07PM 35.8789 -87.4747 68° East 480 552 37,000  Level Memphis Center
01:08PM 35.9294 -87.3219 68° East 480 552 37,000  Level Memphis Center
01:09PM 35.9800 -87.1661 68° East 480 552 37,000  Level Memphis Center
01:10PM 36.0281 -87.0128 69° East 480 552 37,000  Level Memphis Center
01:11PM 36.0758 -86.8592 69° East 480 552 37,000  Level Memphis Center
01:12PM 36.1256 -86.7056 68° East 480 552 37,000  Level Memphis Center
01:13PM 36.1942 -86.5583 60° Northeast 490 564 37,000  Level Memphis Center
01:14PM 36.2647 -86.4111 59° Northeast 499 574 37,000  Level Memphis Center
01:15PM 36.3369 -86.2633 59° Northeast 504 580 37,000  Level Memphis Center
01:17PM 36.4711 -85.9894 59° Northeast 507 583 37,000  Level Indianapolis Center
01:18PM 36.5447 -85.8367 59° Northeast 511 588 37,000  Level Indianapolis Center
01:19PM 36.6206 -85.6744 60° Northeast 506 582 37,000  Level Indianapolis Center
01:20PM 36.6922 -85.5211 60° Northeast 508 585 37,000  Level Indianapolis Center
01:21PM 36.7711 -85.3503 60° Northeast 509 586 37,000  Level Indianapolis Center
01:23PM 36.8900 -85.0961 60° Northeast 498 573 37,000  Level Indianapolis Center
01:24PM 36.9608 -84.9433 60° Northeast 503 579 37,000  Level Indianapolis Center
01:25PM 37.0297 -84.7908 60° Northeast 502 578 37,000  Level Indianapolis Center
01:26PM 37.1031 -84.6325 60° Northeast 499 574 37,000  Level Indianapolis Center
01:27PM 37.1844 -84.4517 60° Northeast 510 587 37,000  Level Indianapolis Center
01:28PM 37.2547 -84.2956 60° Northeast 512 589 37,000  Level Indianapolis Center
01:29PM 37.3256 -84.1406 60° Northeast 508 585 37,000  Level Indianapolis Center
01:30PM 37.3964 -83.9822 61° Northeast 513 590 37,000  Level Indianapolis Center
01:31PM 37.4658 -83.8258 61° Northeast 511 588 37,000  Level Indianapolis Center
01:32PM 37.5350 -83.6700 61° Northeast 505 581 37,000  Level Indianapolis Center
01:33PM 37.6042 -83.5117 61° Northeast 509 586 37,000  Level Indianapolis Center
01:34PM 37.6725 -83.3561 61° Northeast 504 580 37,000  Level Indianapolis Center
01:35PM 37.7414 -83.2003 61° Northeast 503 579 37,000  Level Indianapolis Center
01:36PM 37.8094 -83.0403 62° Northeast 511 588 37,000  Level Indianapolis Center
01:37PM 37.8761 -82.8861 61° Northeast 499 574 37,000  Level Indianapolis Center
01:38PM 37.9325 -82.7253 66° East 498 573 37,000  Level Indianapolis Center
01:39PM 37.9617 -82.5561 78° East 491 565 37,000  Level Indianapolis Center
01:40PM 37.9967 -82.3578 77° East 491 565 37,000  Level Indianapolis Center
01:41PM 38.0261 -82.1867 78° East 494 568 37,000  Level Indianapolis Center
01:42PM 38.0506 -82.0417 78° East 494 568 37,000  Level Indianapolis Center
01:43PM 38.0781 -81.8739 78° East 489 563 37,000  Level Indianapolis Center
01:44PM 38.1111 -81.6703 78° East 493 567 37,000  Level Indianapolis Center
01:45PM 38.1383 -81.5006 78° East 494 568 37,000  Level Indianapolis Center
01:46PM 38.1661 -81.3322 78° East 493 567 37,000  Level Indianapolis Center
01:47PM 38.1919 -81.1625 79° East 493 567 37,000  Level Indianapolis Center
01:48PM 38.2194 -80.9931 78° East 494 568 37,000  Level Indianapolis Center
01:49PM 38.2467 -80.8225 78° East 488 562 37,000  Level Indianapolis Center
01:50PM 38.2733 -80.6556 78° East 490 564 37,000  Level Indianapolis Center
01:51PM 38.3000 -80.4844 79° East 493 567 37,000  Level Indianapolis Center
01:52PM 38.3392 -80.2867 76° East 485 558 37,000  Level Indianapolis Center
01:53PM 38.3694 -80.1389 75° East 489 563 37,000 -120 Level Indianapolis Center
01:54PM 38.4081 -79.9436 76° East 485 558 36,800 -1,560 Descending Indianapolis Center
01:55PM 38.4414 -79.7828 75° East 483 556 33,900 -2,880 Descending Indianapolis Center
01:57PM 38.4817 -79.6019 74° East 478 550 30,400 -2,820 Descending Washington Center
01:58PM 38.5158 -79.4472 74° East 466 536 27,600 -2,640 Descending Washington Center
01:59PM 38.5436 -79.2947 77° East 452 520 25,200 -2,580 Descending Washington Center
02:00PM 38.5689 -79.1500 77° East 433 498 22,600 -2,580 Descending Washington Center
02:01PM 38.5958 -79.0106 76° East 414 476 20,100 -2,220 Descending Washington Center
02:02PM 38.6211 -78.8575 78° East 402 463 18,200 -2,040 Descending Washington Center
02:03PM 38.6447 -78.7469 75° East 388 447 16,100 -2,040 Descending Washington Center
02:04PM 38.6728 -78.6283 73° East 363 418 14,100 -1,860 Descending Washington Center
02:05PM 38.6986 -78.5125 74° East 348 400 12,400 -1,560 Descending Washington Center
02:06PM 38.7264 -78.4017 72° East 334 384 11,100 -720 Descending Washington Center
02:07PM 38.7372 -78.2903 83° East 323 372 11,000 -660 Descending Washington Center
02:08PM 38.7458 -78.1869 84° East 303 349 9,800 -1,500 Descending Washington Center
02:09PM 38.7625 -78.0889 78° East 290 334 8,000 -1,440 Descending Washington Center
02:10PM 38.8119 -78.0108 51° Northeast 271 312 6,900 -1,020 Descending Washington Center
02:11PM 38.8839 -77.9597 29° Northeast 266 306 6,000 -480 Descending Washington Center
02:12PM 38.9333 -77.8867 49° Northeast 271 312 6,000  Level Washington Center
02:13PM 38.9600 -77.7886 71° East 271 312 6,000  Level Washington Center
02:14PM 38.9578 -77.6764 91° East 277 319 6,000  Level Washington Center
02:15PM 38.9833 -77.6000 67° East 303 349 6,000  Level Potomac TRACON
02:16PM 39.0667 -77.5667 17° North 292 336 6,000 -360 Level Potomac TRACON
02:17PM 39.1333 -77.5667 360° North 249 287 5,300 -1,020 Descending Potomac TRACON
02:18PM 39.1667 -77.5167 49° Northeast 250 288 4,000 -660 Descending Potomac TRACON
02:19PM 39.1333 -77.4667 131° Southeast 221 254 4,000 -720 Level Potomac TRACON
02:20PM 39.0833 -77.4500 165° South 183 211 2,600 -1,260 Descending Potomac TRACON
02:21PM 39.0333 -77.4667 195° South 154 177 1,500 -900 Descending Potomac TRACON
02:22PM 39.0000 -77.4667 180° South 131 151 800 -720 Descending Potomac TRACON
02:24PM 38.9474 -77.4599 159° South  Level Estimated